TimeMST,TemperatureF,Dew PointF,Humidity,Sea Level PressureIn,VisibilityMPH,Wind Direction,Wind SpeedMPH,Gust SpeedMPH,PrecipitationIn,Events,Conditions,WindDirDegrees,DateUTC
12:15 AM,10.4,3.2,73,30.40,10.0,South,5.8,-,N/A,,Clear,170,2013-01-16 07:15:00
12:35 AM,10.4,3.2,73,30.40,10.0,Calm,Calm,-,N/A,,Clear,0,2013-01-16 07:35:00
12:55 AM,10.4,3.2,73,30.40,10.0,Calm,Calm,-,N/A,,Clear,0,2013-01-16 07:55:00
1:15 AM,10.4,5.0,79,30.40,10.0,Calm,Calm,-,N/A,,Clear,0,2013-01-16 08:15:00
1:35 AM,8.6,3.2,79,30.40,10.0,Calm,Calm,-,N/A,,Clear,0,2013-01-16 08:35:00
1:55 AM,10.4,5.0,79,30.40,10.0,South,5.8,-,N/A,,Clear,170,2013-01-16 08:55:00
2:15 AM,10.4,5.0,79,30.40,10.0,SSE,6.9,-,N/A,,Clear,160,2013-01-16 09:15:00
2:35 AM,10.4,5.0,79,30.39,10.0,SSE,9.2,-,N/A,,Clear,150,2013-01-16 09:35:00
2:55 AM,10.4,5.0,79,30.39,10.0,South,6.9,-,N/A,,Clear,170,2013-01-16 09:55:00
3:35 AM,10.4,5.0,79,30.40,10.0,SSE,8.1,-,N/A,,Clear,160,2013-01-16 10:35:00
3:55 AM,10.4,5.0,79,30.39,10.0,SSE,8.1,-,N/A,,Clear,160,2013-01-16 10:55:00
4:15 AM,10.4,5.0,79,30.39,10.0,SE,8.1,-,N/A,,Clear,140,2013-01-16 11:15:00
4:35 AM,12.2,6.8,79,30.39,10.0,South,8.1,-,N/A,,Clear,170,2013-01-16 11:35:00
4:55 AM,10.4,6.8,85,30.38,10.0,Calm,Calm,-,N/A,,Clear,0,2013-01-16 11:55:00
5:35 AM,14.0,6.8,73,30.38,10.0,SSE,6.9,-,N/A,,Clear,150,2013-01-16 12:35:00
5:55 AM,15.8,6.8,68,30.38,10.0,SSE,9.2,-,N/A,,Clear,150,2013-01-16 12:55:00
6:15 AM,14.0,6.8,73,30.37,10.0,SSE,10.4,-,N/A,,Clear,150,2013-01-16 13:15:00
6:35 AM,14.0,6.8,73,30.37,10.0,SSE,8.1,-,N/A,,Clear,150,2013-01-16 13:35:00
6:55 AM,14.0,6.8,73,30.37,10.0,South,9.2,-,N/A,,Clear,170,2013-01-16 13:55:00
7:15 AM,15.8,6.8,68,30.39,10.0,SSE,8.1,-,N/A,,Clear,160,2013-01-16 14:15:00
7:35 AM,12.2,6.8,79,30.39,10.0,SE,11.5,-,N/A,,Clear,140,2013-01-16 14:35:00
7:55 AM,15.8,8.6,73,30.40,10.0,SSE,5.8,-,N/A,,Clear,150,2013-01-16 14:55:00
8:15 AM,15.8,8.6,73,30.41,10.0,SSE,6.9,-,N/A,,Clear,150,2013-01-16 15:15:00
8:35 AM,15.8,6.8,68,30.42,10.0,SSE,9.2,-,N/A,,Clear,150,2013-01-16 15:35:00
8:55 AM,17.6,8.6,68,30.42,10.0,SSE,4.6,-,N/A,,Clear,160,2013-01-16 15:55:00
9:15 AM,19.4,10.4,68,30.43,10.0,Calm,Calm,-,N/A,,Clear,0,2013-01-16 16:15:00
9:35 AM,23.0,10.4,59,30.42,10.0,Calm,Calm,-,N/A,,Clear,0,2013-01-16 16:35:00
9:55 AM,28.4,14.0,55,30.42,10.0,Calm,Calm,-,N/A,,Clear,0,2013-01-16 16:55:00
10:15 AM,32.0,14.0,48,30.42,10.0,Calm,Calm,-,N/A,,Clear,0,2013-01-16 17:15:00
10:35 AM,32.0,14.0,48,30.41,10.0,Calm,Calm,-,N/A,,Clear,0,2013-01-16 17:35:00
10:55 AM,33.8,14.0,44,30.40,10.0,Calm,Calm,-,N/A,,Clear,0,2013-01-16 17:55:00
11:15 AM,37.4,15.8,41,30.40,10.0,Calm,Calm,-,N/A,,Clear,0,2013-01-16 18:15:00
11:35 AM,35.6,17.6,48,30.40,10.0,NW,9.2,-,N/A,,Clear,320,2013-01-16 18:35:00
11:55 AM,35.6,17.6,48,30.39,10.0,Calm,Calm,-,N/A,,Clear,0,2013-01-16 18:55:00
12:15 PM,37.4,15.8,41,30.37,10.0,Calm,Calm,-,N/A,,Clear,0,2013-01-16 19:15:00
12:35 PM,39.2,17.6,42,30.37,10.0,NW,6.9,-,N/A,,Clear,320,2013-01-16 19:35:00
12:55 PM,39.2,19.4,45,30.36,10.0,WNW,6.9,-,N/A,,Clear,300,2013-01-16 19:55:00
1:15 PM,39.2,19.4,45,30.36,10.0,WNW,5.8,-,N/A,,Clear,300,2013-01-16 20:15:00
1:35 PM,39.2,17.6,42,30.35,10.0,NW,5.8,-,N/A,,Clear,310,2013-01-16 20:35:00
1:55 PM,39.2,19.4,45,30.35,10.0,NW,5.8,-,N/A,,Clear,310,2013-01-16 20:55:00
2:15 PM,39.2,17.6,42,30.35,10.0,WNW,4.6,-,N/A,,Clear,300,2013-01-16 21:15:00
2:35 PM,39.2,17.6,42,30.34,10.0,Calm,Calm,-,N/A,,Clear,0,2013-01-16 21:35:00
2:55 PM,41.0,17.6,39,30.34,10.0,Calm,Calm,-,N/A,,Clear,0,2013-01-16 21:55:00
3:35 PM,41.0,19.4,42,30.35,10.0,Calm,Calm,-,N/A,,Clear,0,2013-01-16 22:35:00
3:55 PM,42.8,17.6,36,30.35,10.0,Calm,Calm,-,N/A,,Clear,0,2013-01-16 22:55:00
4:15 PM,41.0,19.4,42,30.35,10.0,Calm,Calm,-,N/A,,Clear,0,2013-01-16 23:15:00
4:35 PM,41.0,19.4,42,30.36,10.0,Calm,Calm,-,N/A,,Clear,0,2013-01-16 23:35:00
4:55 PM,41.0,19.4,42,30.36,7.0,NW,5.8,-,N/A,,Clear,310,2013-01-16 23:55:00
5:15 PM,41.0,19.4,42,30.36,10.0,Calm,Calm,-,N/A,,Clear,0,2013-01-17 00:15:00
5:35 PM,41.0,17.6,39,30.37,10.0,Calm,Calm,-,N/A,,Clear,0,2013-01-17 00:35:00
5:55 PM,39.2,17.6,42,30.37,10.0,Calm,Calm,-,N/A,,Unknown,0,2013-01-17 00:55:00
6:15 PM,33.8,17.6,52,30.38,10.0,Calm,Calm,-,N/A,,Clear,0,2013-01-17 01:15:00
6:35 PM,32.0,17.6,55,30.38,10.0,Calm,Calm,-,N/A,,Clear,0,2013-01-17 01:35:00
6:55 PM,30.2,17.6,60,30.39,10.0,SSE,8.1,-,N/A,,Clear,150,2013-01-17 01:55:00
7:15 PM,28.4,17.6,64,30.39,10.0,SSE,5.8,-,N/A,,Clear,150,2013-01-17 02:15:00
7:35 PM,28.4,17.6,64,30.40,10.0,SE,6.9,-,N/A,,Clear,140,2013-01-17 02:35:00
7:55 PM,26.6,17.6,69,30.40,9.0,SSE,8.1,-,N/A,,Clear,150,2013-01-17 02:55:00
8:15 PM,28.4,14.0,55,30.40,10.0,SE,5.8,-,N/A,,Clear,140,2013-01-17 03:15:00
8:35 PM,28.4,14.0,55,30.40,10.0,SE,5.8,-,N/A,,Clear,130,2013-01-17 03:35:00
8:55 PM,28.4,14.0,55,30.41,10.0,SE,5.8,-,N/A,,Clear,130,2013-01-17 03:55:00
9:15 PM,26.6,14.0,59,30.41,10.0,Calm,Calm,-,N/A,,Clear,0,2013-01-17 04:15:00
9:35 PM,26.6,12.2,55,30.41,10.0,SE,4.6,-,N/A,,Clear,140,2013-01-17 04:35:00
9:55 PM,24.8,12.2,59,30.41,10.0,SSE,5.8,-,N/A,,Clear,150,2013-01-17 04:55:00
10:15 PM,24.8,10.4,54,30.41,10.0,SSE,3.5,-,N/A,,Clear,150,2013-01-17 05:15:00
10:35 PM,26.6,10.4,51,30.41,10.0,Calm,Calm,-,N/A,,Clear,0,2013-01-17 05:35:00
10:55 PM,24.8,10.4,54,30.41,10.0,SE,5.8,-,N/A,,Clear,140,2013-01-17 05:55:00
11:15 PM,24.8,10.4,54,30.41,10.0,SSE,5.8,-,N/A,,Clear,150,2013-01-17 06:15:00
11:35 PM,26.6,10.4,51,30.40,10.0,SE,5.8,-,N/A,,Clear,130,2013-01-17 06:35:00
11:55 PM,24.8,10.4,54,30.41,10.0,SE,6.9,-,N/A,,Clear,130,2013-01-17 06:55:00